Terminal Aerodrome Forecast
Issued by NWS

Home | Current Version | Previous Version | Text Only | Print | Product List | Glossary On
Versions: 1 2 3 4 5 6 7 8 9 10 11 12 13 14 15 16 17
000
FTUS41 KGYX 011100
TAFHIE
TAF
KHIE 011120Z 0112/0212 VRB03KT P6SM SCT100
     FM011600 23006KT P6SM SCT050 SCT080
     FM020000 00000KT P6SM SCT120 BKN200=

USA.gov is the U.S. government's official web portal to all federal, state and local government web resources and services.